Time;durP1;ratioP1;P1;durP2;ratioP2;P2;SDS_P1;SDS_P2;PMS_P1;PMS_P2;Temp;Humidity;BMP_temperature;BMP_pressure;BME280_temperature;BME280_humidity;BME280_pressure;Samples;Min_cycle;Max_cycle;Signal;HPM_P1;HPM_P2
2022/10/21 00:00:38;;;;;;;30.57;20.32;;;;;;;7.31;98.88;100449.92;2993388;77;21096;-85
2022/10/21 00:04:41;;;;;;;27.90;20.00;;;;;;;7.25;99.66;100444.06;2982106;78;21074;-85
2022/10/21 00:08:42;;;;;;;30.30;19.50;;;;;;;7.10;100.00;100438.47;2904741;80;21022;-83
2022/10/21 00:12:43;;;;;;;31.17;21.10;;;;;;;7.11;100.00;100424.30;2928291;78;21636;-83
2022/10/21 00:16:44;;;;;;;36.13;21.37;;;;;;;7.10;100.00;100408.88;2927848;79;21513;-83
2022/10/21 00:20:45;;;;;;;31.40;22.73;;;;;;;7.03;100.00;100413.34;2934904;79;21545;-84
2022/10/21 00:24:47;;;;;;;29.45;22.48;;;;;;;6.94;100.00;100404.22;2925541;79;21112;-84
2022/10/21 00:28:55;;;;;;;30.37;18.80;;;;;;;6.81;100.00;100402.38;2923426;79;21603;-83
2022/10/21 00:32:56;;;;;;;34.13;20.57;;;;;;;6.72;100.00;100409.56;2978085;78;21013;-84
2022/10/21 00:36:57;;;;;;;32.15;20.37;;;;;;;6.74;100.00;100406.84;2968403;78;21031;-84
2022/10/21 00:40:59;;;;;;;29.82;18.95;;;;;;;6.79;100.00;100410.02;2922271;78;21028;-84
2022/10/21 00:45:08;;;;;;;34.08;20.52;;;;;;;6.91;100.00;100418.50;2949464;76;21026;-84
2022/10/21 00:49:39;;;;;;;31.93;20.25;;;;;;;6.94;100.00;100401.57;2903908;79;21087;-84
2022/10/21 00:53:45;;;;;;;25.15;17.52;;;;;;;6.95;100.00;100396.66;2907169;79;21375;-84
2022/10/21 00:57:46;;;;;;;;;;;;;;;7.01;100.00;100381.73;2938358;78;21061;-84
2022/10/21 01:01:48;;;;;;;24.00;17.80;;;;;;;7.02;100.00;100396.65;2957871;78;20140;-84
2022/10/21 01:05:50;;;;;;;39.45;19.75;;;;;;;7.04;100.00;100407.97;2938602;80;20999;-84
2022/10/21 01:09:52;;;;;;;27.73;17.17;;;;;;;7.10;100.00;100400.12;2984783;77;21147;-84
2022/10/21 01:14:25;;;;;;;29.82;21.60;;;;;;;7.07;100.00;100395.00;2945706;79;21172;-83
2022/10/21 01:18:56;;;;;;;31.85;18.62;;;;;;;7.14;100.00;100385.24;2972917;77;21088;-83
2022/10/21 01:23:54;;;;;;;26.55;18.55;;;;;;;7.15;100.00;100390.07;2929976;78;21010;-84
2022/10/21 01:28:19;;;;;;;26.45;17.80;;;;;;;7.10;100.00;100374.49;2940127;78;21069;-83
2022/10/21 01:32:29;;;;;;;26.15;18.07;;;;;;;7.13;100.00;100383.55;2934673;79;21185;-85
2022/10/21 01:36:41;;;;;;;27.37;20.08;;;;;;;7.25;100.00;100381.88;2942572;79;21067;-84
2022/10/21 01:40:53;;;;;;;33.50;21.40;;;;;;;7.38;100.00;100395.17;2940675;79;21078;-84
2022/10/21 01:45:00;;;;;;;30.77;17.77;;;;;;;7.50;100.00;100381.59;2937433;78;21069;-84
2022/10/21 01:49:12;;;;;;;26.15;18.32;;;;;;;7.40;100.00;100384.47;2918921;78;20989;-84
2022/10/21 01:53:15;;;;;;;23.20;17.00;;;;;;;7.43;100.00;100382.93;2917076;79;21015;-84
2022/10/21 01:57:20;;;;;;;21.80;16.95;;;;;;;7.56;100.00;100384.27;2950622;78;21009;-84
2022/10/21 02:01:23;;;;;;;19.67;15.58;;;;;;;7.61;100.00;100387.94;2978304;78;21114;-85
2022/10/21 02:05:29;;;;;;;27.70;16.62;;;;;;;7.64;100.00;100378.45;2969540;78;21561;-85
2022/10/21 02:09:30;;;;;;;20.67;16.03;;;;;;;7.61;100.00;100378.21;2970928;78;21491;-84
2022/10/21 02:13:56;;;;;;;25.88;17.48;;;;;;;7.64;100.00;100373.16;2954533;76;21108;-84
2022/10/21 02:18:06;;;;;;;25.95;16.87;;;;;;;7.62;100.00;100373.74;2959289;78;21036;-85
2022/10/21 02:22:10;;;;;;;22.13;15.55;;;;;;;7.74;100.00;100373.38;2963227;78;21089;-84
2022/10/21 02:26:11;;;;;;;20.62;16.35;;;;;;;7.88;100.00;100358.72;2964259;78;21057;-84
2022/10/21 02:30:12;;;;;;;35.05;18.10;;;;;;;7.97;100.00;100369.15;2967023;78;21070;-84
2022/10/21 02:35:01;;;;;;;25.37;16.70;;;;;;;8.05;100.00;100364.64;2948240;77;21085;-84
2022/10/21 02:39:14;;;;;;;20.97;17.05;;;;;;;8.14;100.00;100365.30;2971491;77;21029;-85
2022/10/21 02:43:20;;;;;;;23.80;16.10;;;;;;;8.29;100.00;100364.72;2949963;79;21121;-84
2022/10/21 02:47:25;;;;;;;24.70;18.48;;;;;;;8.39;100.00;100355.63;2918356;79;21042;-84
2022/10/21 02:51:26;;;;;;;23.95;16.20;;;;;;;8.47;100.00;100353.77;2921433;78;20993;-84
2022/10/21 02:55:27;;;;;;;17.30;13.93;;;;;;;8.55;100.00;100331.54;2927871;78;21016;-85
2022/10/21 02:59:28;;;;;;;22.40;16.55;;;;;;;8.60;100.00;100338.67;2903212;79;21608;-84
2022/10/21 03:03:29;;;;;;;16.30;13.60;;;;;;;8.71;100.00;100325.48;2917228;79;21102;-84
2022/10/21 03:07:30;;;;;;;14.98;12.70;;;;;;;8.72;100.00;100318.36;2884701;80;20962;-85
2022/10/21 03:11:32;;;;;;;15.72;12.47;;;;;;;8.82;100.00;100317.20;2942175;78;21017;-85
2022/10/21 03:15:33;;;;;;;16.93;9.98;;;;;;;8.96;100.00;100321.50;2933996;78;21096;-85
2022/10/21 03:19:34;;;;;;;10.32;8.48;;;;;;;9.11;100.00;100322.16;2910793;79;21096;-85
2022/10/21 03:23:35;;;;;;;13.13;9.48;;;;;;;9.33;100.00;100315.22;2973481;77;21026;-85
2022/10/21 03:27:37;;;;;;;18.48;9.68;;;;;;;9.58;100.00;100315.51;2901044;79;21034;-84
2022/10/21 03:31:38;;;;;;;8.90;7.00;;;;;;;9.84;100.00;100307.31;2955412;78;21541;-85
2022/10/21 03:35:39;;;;;;;11.53;6.58;;;;;;;10.08;100.00;100311.64;2910495;79;21550;-85
2022/10/21 03:39:40;;;;;;;8.90;6.87;;;;;;;10.31;100.00;100300.51;2947914;78;21041;-85
2022/10/21 03:43:41;;;;;;;10.58;6.55;;;;;;;10.51;100.00;100298.08;2940523;79;20998;-85
2022/10/21 03:47:43;;;;;;;9.18;5.72;;;;;;;10.68;100.00;100302.00;2912010;78;21007;-85
2022/10/21 03:51:44;;;;;;;8.65;6.62;;;;;;;10.83;100.00;100302.08;2954279;78;21054;-85
2022/10/21 03:55:45;;;;;;;9.93;6.28;;;;;;;10.99;98.37;100295.48;2958443;78;21038;-85
2022/10/21 03:59:46;;;;;;;7.55;6.00;;;;;;;11.13;97.81;100285.00;2939298;78;20979;-85
2022/10/21 04:03:47;;;;;;;20.88;12.70;;;;;;;11.21;96.65;100277.22;2971615;78;21421;-85
2022/10/21 04:07:48;;;;;;;20.95;15.40;;;;;;;11.25;94.07;100268.00;2969495;78;21010;-84
2022/10/21 04:11:50;;;;;;;18.90;13.45;;;;;;;11.00;93.14;100272.74;2964563;78;21022;-84
2022/10/21 04:15:58;;;;;;;19.20;11.88;;;;;;;10.87;94.31;100265.42;2950810;78;21087;-85
2022/10/21 04:19:59;;;;;;;11.10;9.55;;;;;;;10.83;95.75;100258.67;2982218;77;21074;-85
2022/10/21 04:24:01;;;;;;;16.45;8.50;;;;;;;10.82;96.65;100237.03;2914978;79;21045;-85
2022/10/21 04:28:02;;;;;;;12.93;8.28;;;;;;;10.77;97.81;100231.23;2975022;77;21144;-85
2022/10/21 04:32:03;;;;;;;9.33;6.05;;;;;;;10.71;98.71;100228.11;2929647;79;22043;-85
2022/10/21 04:36:05;;;;;;;9.43;6.35;;;;;;;10.77;99.17;100233.41;2931320;77;21144;-85
2022/10/21 04:40:08;;;;;;;18.65;10.03;;;;;;;10.84;100.00;100227.92;2994596;78;21658;-85
2022/10/21 04:44:09;;;;;;;14.07;10.23;;;;;;;10.95;99.24;100219.03;2962201;77;21023;-85
2022/10/21 04:48:12;;;;;;;8.83;7.75;;;;;;;11.06;97.60;100214.63;2974358;78;21025;-85
2022/10/21 04:52:13;;;;;;;7.35;6.40;;;;;;;11.16;96.90;100194.22;2936229;77;20996;-85
2022/10/21 04:56:14;;;;;;;10.40;7.00;;;;;;;11.22;96.25;100177.73;2900252;78;20991;-85
2022/10/21 05:00:16;;;;;;;9.10;6.08;;;;;;;11.23;95.74;100175.42;2963801;77;21014;-85
2022/10/21 05:04:17;;;;;;;6.20;4.90;;;;;;;11.13;95.99;100158.55;2971678;77;21027;-85
2022/10/21 05:08:19;;;;;;;10.68;7.30;;;;;;;11.14;95.47;100137.12;2943727;80;21569;-85
2022/10/21 05:12:20;;;;;;;10.32;7.15;;;;;;;11.13;95.63;100126.13;2959819;77;21593;-85
2022/10/21 05:16:22;;;;;;;6.37;5.08;;;;;;;11.16;95.75;100128.17;2979071;78;21569;-85
2022/10/21 05:20:24;;;;;;;7.87;5.42;;;;;;;11.18;94.62;100105.73;2966840;77;21541;-84
2022/10/21 05:24:25;;;;;;;9.40;7.08;;;;;;;11.23;93.39;100109.34;2904473;79;21003;-84
2022/10/21 05:28:26;;;;;;;8.73;5.90;;;;;;;11.31;92.73;100095.35;2933158;79;21050;-84
2022/10/21 05:32:27;;;;;;;13.83;6.05;;;;;;;11.38;92.82;100101.81;2936053;79;21030;-84
2022/10/21 05:36:28;;;;;;;7.15;5.37;;;;;;;11.46;92.48;100104.66;2929166;79;21565;-84
2022/10/21 05:40:30;;;;;;;6.72;4.83;;;;;;;11.49;91.66;100110.18;2961379;78;21612;-84
2022/10/21 05:44:32;;;;;;;7.58;6.30;;;;;;;11.60;90.71;100103.92;2920940;78;21087;-84
2022/10/21 05:48:33;;;;;;;7.80;6.25;;;;;;;11.62;90.93;100108.63;2930879;78;21047;-84
2022/10/21 05:52:34;;;;;;;11.53;6.72;;;;;;;11.61;90.20;100093.63;2969535;78;21062;-84
2022/10/21 05:56:35;;;;;;;10.10;6.20;;;;;;;11.68;89.64;100083.58;2958969;78;21047;-84
2022/10/21 06:00:37;;;;;;;8.20;5.78;;;;;;;11.68;89.38;100064.11;2956033;78;21088;-84
2022/10/21 06:04:38;;;;;;;9.30;6.62;;;;;;;11.74;89.66;100067.53;2974990;76;21046;-84
2022/10/21 06:08:39;;;;;;;9.08;6.17;;;;;;;11.78;89.06;100060.94;2989170;77;21021;-84
2022/10/21 06:12:40;;;;;;;7.15;5.08;;;;;;;11.80;89.28;100057.67;2948284;78;21094;-84
2022/10/21 06:16:41;;;;;;;9.00;6.42;;;;;;;11.82;88.76;100055.70;2879344;79;21086;-84
2022/10/21 06:20:42;;;;;;;9.30;6.40;;;;;;;11.94;88.50;100067.07;2917285;79;21080;-84
2022/10/21 06:24:43;;;;;;;9.10;6.20;;;;;;;12.00;87.47;100067.83;2889238;79;21542;-84
2022/10/21 06:28:44;;;;;;;7.33;5.45;;;;;;;12.01;89.46;100067.39;2934327;77;21565;-84
2022/10/21 06:32:45;;;;;;;7.70;5.92;;;;;;;12.12;88.28;100068.56;2959594;77;21039;-84
2022/10/21 06:36:47;;;;;;;9.10;6.62;;;;;;;12.12;87.82;100071.73;2949986;78;21541;-84
2022/10/21 06:40:48;;;;;;;9.30;6.37;;;;;;;12.23;87.31;100069.41;2923241;78;21030;-84
2022/10/21 06:44:49;;;;;;;6.22;5.08;;;;;;;12.32;87.03;100079.72;2934921;77;21090;-84
2022/10/21 06:48:50;;;;;;;7.75;5.87;;;;;;;12.44;87.09;100074.55;2877812;79;21156;-84
2022/10/21 06:52:51;;;;;;;15.75;7.92;;;;;;;12.48;85.96;100072.45;2930872;78;21122;-84
2022/10/21 06:56:52;;;;;;;8.20;6.37;;;;;;;12.55;86.76;100085.08;2917862;79;21441;-84
2022/10/21 07:00:53;;;;;;;9.48;6.55;;;;;;;12.56;87.97;100082.75;2979641;77;21026;-84
2022/10/21 07:04:56;;;;;;;7.97;5.65;;;;;;;12.63;87.03;100089.70;2983561;78;21080;-84
2022/10/21 07:08:57;;;;;;;8.68;6.72;;;;;;;12.77;87.89;100088.87;2989045;77;20991;-85
2022/10/21 07:12:59;;;;;;;5.40;4.47;;;;;;;12.82;85.90;100093.30;2922946;79;21006;-86
2022/10/21 07:17:00;;;;;;;6.42;5.28;;;;;;;12.86;86.91;100090.17;2934060;79;21069;-85
2022/10/21 07:21:06;;;;;;;9.75;5.37;;;;;;;12.94;87.03;100064.09;2913545;78;21544;-85
2022/10/21 07:25:07;;;;;;;6.77;5.90;;;;;;;13.03;84.22;100066.88;2934925;78;20995;-85
2022/10/21 07:29:08;;;;;;;8.13;6.10;;;;;;;13.19;84.95;100066.23;2962617;78;21498;-84
2022/10/21 07:33:10;;;;;;;8.30;5.08;;;;;;;13.26;85.37;100081.52;2906872;78;21049;-84
2022/10/21 07:37:11;;;;;;;6.05;5.22;;;;;;;13.16;82.38;100081.22;2842767;78;22036;-84
2022/10/21 07:41:15;;;;;;;6.10;4.78;;;;;;;13.17;83.58;100073.55;2948993;78;21121;-83
2022/10/21 07:45:17;;;;;;;6.15;5.05;;;;;;;13.18;84.24;100081.44;2919816;78;21044;-82
2022/10/21 07:49:19;;;;;;;6.20;5.53;;;;;;;13.31;83.90;100074.88;2916920;79;21004;-82
2022/10/21 07:53:24;;;;;;;5.65;4.97;;;;;;;13.38;84.20;100060.78;2943904;79;21120;-83
2022/10/21 07:57:24;;;;;;;5.42;4.92;;;;;;;13.55;84.72;100070.35;2922752;79;21549;-84
2022/10/21 08:01:26;;;;;;;8.93;4.92;;;;;;;13.77;83.11;100083.79;2960913;78;21025;-83
2022/10/21 08:05:27;;;;;;;7.25;6.28;;;;;;;14.10;83.50;100073.89;2934352;79;21108;-84
2022/10/21 08:09:28;;;;;;;7.47;5.37;;;;;;;14.19;80.07;100069.45;2945418;79;21057;-84
2022/10/21 08:13:30;;;;;;;8.78;5.35;;;;;;;14.33;78.68;100057.34;2933990;78;21053;-84
2022/10/21 08:17:31;;;;;;;5.08;4.58;;;;;;;14.40;76.63;100047.69;2948203;79;21027;-84
2022/10/21 08:21:33;;;;;;;12.50;6.58;;;;;;;14.66;76.92;100051.70;2929645;76;21110;-84
2022/10/21 08:25:34;;;;;;;7.78;5.80;;;;;;;14.91;77.04;100050.52;2920271;79;21062;-84
2022/10/21 08:29:36;;;;;;;7.12;4.95;;;;;;;15.09;76.79;100048.26;2924939;80;21065;-84
2022/10/21 08:33:37;;;;;;;16.27;5.83;;;;;;;15.22;74.98;100036.59;2922725;80;21049;-84
2022/10/21 08:37:38;;;;;;;7.87;5.58;;;;;;;15.34;73.40;100040.33;2889425;79;21037;-84
2022/10/21 08:42:07;;;;;;;7.45;4.53;;;;;;;15.38;73.42;100035.80;2857498;82;21039;-84
2022/10/21 08:46:14;;;;;;;9.63;6.33;;;;;;;15.15;72.09;100023.52;2846581;81;21026;-84
2022/10/21 08:50:19;;;;;;;6.70;5.12;;;;;;;15.11;73.59;100018.12;2927559;79;21057;-84
2022/10/21 08:54:27;;;;;;;;;;;;;;;15.06;72.75;100019.97;2934406;79;21620;-84
2022/10/21 08:58:28;;;;;;;5.90;5.22;;;;;;;15.08;73.92;100030.51;2901259;79;20144;-84
2022/10/21 09:02:55;;;;;;;5.30;4.70;;;;;;;14.99;74.57;100032.31;2772161;82;22301;-84
2022/10/21 09:06:59;;;;;;;;;;;;;;;15.06;75.30;100019.12;2933502;79;21161;-84
2022/10/21 09:11:09;;;;;;;6.60;5.08;;;;;;;15.10;73.96;100020.47;2908134;80;20132;-84
2022/10/21 09:15:33;;;;;;;7.75;5.35;;;;;;;15.11;74.35;100024.82;2906963;79;21046;-84
2022/10/21 09:20:03;;;;;;;6.10;4.50;;;;;;;15.17;75.34;100020.17;2910709;79;21027;-84
2022/10/21 09:24:10;;;;;;;6.58;5.40;;;;;;;15.29;73.23;100018.03;2876437;80;21012;-84
2022/10/21 09:28:15;;;;;;;11.73;5.25;;;;;;;15.35;73.50;99993.77;2885218;81;21082;-84
2022/10/21 09:32:24;;;;;;;8.45;6.08;;;;;;;15.36;72.88;99998.12;2864052;81;21146;-84
2022/10/21 09:36:37;;;;;;;9.13;4.67;;;;;;;15.55;74.52;100005.86;2893801;79;20999;-84
2022/10/21 09:40:38;;;;;;;5.62;5.08;;;;;;;15.76;73.61;99996.98;2886385;80;21620;-84
2022/10/21 09:44:39;;;;;;;11.88;6.22;;;;;;;15.99;71.22;100010.61;2907748;80;21113;-84
2022/10/21 09:48:48;;;;;;;6.05;4.65;;;;;;;16.10;73.33;99998.17;2921587;79;21073;-84
2022/10/21 09:53:03;;;;;;;11.70;6.45;;;;;;;16.20;71.61;99990.47;2980964;79;20998;-84
2022/10/21 09:57:37;;;;;;;7.20;5.58;;;;;;;16.30;71.01;99984.91;2867004;82;21063;-84
2022/10/21 10:01:41;;;;;;;8.88;5.83;;;;;;;16.45;72.50;99985.04;2936459;80;21010;-84
2022/10/21 10:05:47;;;;;;;9.13;6.12;;;;;;;16.59;71.29;99964.20;2929925;80;21029;-84
2022/10/21 10:09:48;;;;;;;7.35;5.42;;;;;;;16.64;71.54;99975.25;2863483;81;21073;-84
2022/10/21 10:13:52;;;;;;;17.80;7.85;;;;;;;16.54;71.13;99982.69;2825986;82;20981;-85
2022/10/21 10:17:56;;;;;;;7.97;6.62;;;;;;;16.47;71.14;99981.67;2917081;80;21562;-85
2022/10/21 10:22:10;;;;;;;7.92;6.03;;;;;;;16.42;71.43;99958.05;2943700;80;21023;-85
2022/10/21 10:26:29;;;;;;;6.30;5.42;;;;;;;16.35;71.51;99949.00;2924733;80;21390;-85
2022/10/21 10:30:47;;;;;;;5.22;4.70;;;;;;;16.44;72.75;99960.55;2887871;80;21054;-87
2022/10/21 10:34:55;;;;;;;6.65;5.12;;;;;;;16.41;70.16;99961.75;2949853;79;21082;-85
2022/10/21 10:38:59;;;;;;;9.20;5.22;;;;;;;16.58;71.97;99957.16;2952260;79;21066;-85
2022/10/21 10:43:17;;;;;;;6.83;5.78;;;;;;;16.69;70.59;99943.33;2905714;80;21116;-85
2022/10/21 10:47:30;;;;;;;8.65;4.83;;;;;;;16.68;70.32;99941.66;2925096;80;21082;-86
2022/10/21 10:51:34;;;;;;;13.08;7.17;;;;;;;16.81;70.26;99932.22;2860429;81;21048;-85
2022/10/21 10:55:42;;;;;;;8.63;5.50;;;;;;;16.80;67.28;99941.29;2869853;81;21042;-85
2022/10/21 10:59:57;;;;;;;11.40;5.85;;;;;;;16.96;70.33;99950.61;2956994;79;21510;-85
2022/10/21 11:04:10;;;;;;;10.30;5.30;;;;;;;16.89;69.61;99938.88;2839915;81;21035;-85
2022/10/21 11:08:25;;;;;;;10.93;6.08;;;;;;;16.89;70.79;99931.34;2892436;80;21141;-85
2022/10/21 11:12:27;;;;;;;8.10;5.45;;;;;;;16.88;70.27;99917.06;2925539;80;21019;-85
2022/10/21 11:16:45;;;;;;;9.38;4.95;;;;;;;16.87;70.27;99924.78;2877788;80;21592;-85
2022/10/21 11:20:58;;;;;;;9.35;6.10;;;;;;;16.78;70.94;99905.72;2940895;79;21012;-84
2022/10/21 11:25:40;;;;;;;9.23;5.50;;;;;;;16.67;70.44;99901.58;2913809;79;20987;-85
2022/10/21 11:30:18;;;;;;;7.53;4.83;;;;;;;16.70;71.63;99898.05;2834073;80;21069;-85
2022/10/21 11:34:49;;;;;;;7.30;5.28;;;;;;;16.77;71.68;99904.04;2873134;81;21058;-85
2022/10/21 11:39:20;;;;;;;5.67;5.15;;;;;;;16.80;70.20;99895.13;2901569;80;21099;-85
2022/10/21 11:43:56;;;;;;;6.92;5.17;;;;;;;16.86;72.07;99897.59;2856141;81;21024;-85
2022/10/21 11:48:14;;;;;;;10.28;6.05;;;;;;;16.77;69.64;99910.76;2880968;80;21039;-85
2022/10/21 11:52:56;;;;;;;7.08;4.70;;;;;;;16.83;70.20;99901.49;2920765;80;21000;-85
2022/10/21 11:57:11;;;;;;;10.32;5.80;;;;;;;16.97;71.46;99899.89;2867521;81;21657;-85
2022/10/21 12:01:24;;;;;;;6.80;5.30;;;;;;;17.04;71.80;99915.33;2940239;79;21002;-85
2022/10/21 12:05:38;;;;;;;8.43;6.12;;;;;;;16.98;72.95;99909.66;2951681;79;21029;-85
2022/10/21 12:09:48;;;;;;;8.50;6.30;;;;;;;16.75;71.21;99918.98;2918454;79;21011;-85
2022/10/21 12:14:00;;;;;;;16.02;10.50;;;;;;;16.68;72.07;99900.03;2937677;79;21065;-85
2022/10/21 12:18:04;;;;;;;8.23;6.55;;;;;;;16.59;73.32;99891.70;2921013;80;20981;-85
2022/10/21 12:22:08;;;;;;;16.12;7.58;;;;;;;16.64;72.46;99889.84;2923375;80;21045;-85
2022/10/21 12:26:26;;;;;;;9.48;6.10;;;;;;;16.57;71.45;99904.47;2932515;79;21034;-85
2022/10/21 12:30:44;;;;;;;9.13;6.33;;;;;;;16.62;73.15;99912.02;2919151;80;20992;-85
2022/10/21 12:34:46;;;;;;;7.53;6.17;;;;;;;16.60;73.00;99910.83;2771505;84;21007;-85
2022/10/21 12:38:51;;;;;;;7.85;4.50;;;;;;;16.60;72.20;99900.09;2735286;84;21085;-85
2022/10/21 12:43:01;;;;;;;9.38;6.70;;;;;;;16.64;73.99;99897.90;2788396;84;21145;-85
2022/10/21 12:47:26;;;;;;;11.22;6.83;;;;;;;16.57;71.43;99881.65;2780585;85;21023;-85
2022/10/21 12:51:31;;;;;;;8.33;5.37;;;;;;;16.50;72.77;99892.24;2774418;85;21038;-85
2022/10/21 12:55:39;;;;;;;7.58;5.53;;;;;;;16.42;72.31;99895.80;2751930;85;21029;-85
2022/10/21 12:59:42;;;;;;;8.98;7.40;;;;;;;16.28;72.68;99888.45;2767768;85;21650;-85
2022/10/21 13:03:53;;;;;;;12.65;7.67;;;;;;;16.22;73.61;99886.48;2761466;85;21363;-85
2022/10/21 13:08:21;;;;;;;8.40;6.17;;;;;;;16.13;75.44;99890.54;2779352;84;21589;-84
2022/10/21 13:12:29;;;;;;;10.68;7.62;;;;;;;16.06;74.73;99890.88;2868148;80;21027;-85
2022/10/21 13:16:38;;;;;;;6.45;5.85;;;;;;;15.99;75.86;99892.06;2882480;81;22319;-85
2022/10/21 13:20:45;;;;;;;14.45;8.68;;;;;;;15.96;76.65;99895.09;2901262;81;21030;-84
2022/10/21 13:24:48;;;;;;;10.85;8.15;;;;;;;15.97;76.88;99904.80;2919373;80;20963;-85
2022/10/21 13:29:07;;;;;;;21.37;11.55;;;;;;;16.01;76.57;99914.70;2926228;80;20972;-85
2022/10/21 13:33:18;;;;;;;23.05;13.98;;;;;;;15.99;76.78;99911.35;2893210;80;21549;-84
2022/10/21 13:37:33;;;;;;;25.02;15.75;;;;;;;15.99;78.07;99904.65;2929135;79;21407;-85
2022/10/21 13:41:35;;;;;;;11.95;8.90;;;;;;;16.07;77.96;99902.45;2919097;80;21095;-85
2022/10/21 13:45:48;;;;;;;13.35;6.78;;;;;;;16.07;77.60;99899.25;2903249;80;21003;-85
2022/10/21 13:49:53;;;;;;;21.23;9.70;;;;;;;15.99;76.06;99908.16;2937445;80;21031;-85
2022/10/21 13:54:00;;;;;;;14.60;8.93;;;;;;;15.97;77.42;99909.35;2906056;80;21062;-84
2022/10/21 13:58:01;;;;;;;11.60;7.85;;;;;;;15.90;78.05;99917.72;2846230;81;21066;-84
2022/10/21 14:02:04;;;;;;;10.95;7.87;;;;;;;15.75;78.01;99914.38;2873102;80;21019;-84
2022/10/21 14:06:08;;;;;;;12.80;6.65;;;;;;;15.67;79.18;99922.41;2914222;79;21062;-84
2022/10/21 14:10:13;;;;;;;10.15;6.78;;;;;;;15.59;80.17;99936.65;2920717;80;20972;-84
2022/10/21 14:14:19;;;;;;;12.33;6.87;;;;;;;15.48;82.03;99935.66;2916792;79;21152;-84
2022/10/21 14:18:26;;;;;;;12.03;6.47;;;;;;;15.20;82.86;99927.91;2900388;81;21534;-84
2022/10/21 14:22:30;;;;;;;13.98;8.20;;;;;;;15.10;86.06;99949.48;2932811;80;21038;-84
2022/10/21 14:26:32;;;;;;;8.80;7.17;;;;;;;14.85;86.70;99939.56;2876194;81;21031;-84
2022/10/21 14:30:35;;;;;;;23.22;8.90;;;;;;;14.60;89.46;99927.88;2917364;79;21029;-84
2022/10/21 14:34:54;;;;;;;11.20;8.58;;;;;;;14.42;90.83;99929.28;2885273;81;21007;-84
2022/10/21 14:39:04;;;;;;;11.60;8.73;;;;;;;14.23;92.28;99936.55;2936284;79;21026;-84
2022/10/21 14:43:14;;;;;;;11.28;7.45;;;;;;;14.10;93.10;99946.34;2936024;79;21014;-84
2022/10/21 14:47:26;;;;;;;11.18;8.75;;;;;;;13.97;95.77;99956.63;2939180;79;21049;-84
2022/10/21 14:51:27;;;;;;;10.63;8.33;;;;;;;13.88;97.37;99959.73;2902260;81;21057;-84
2022/10/21 14:55:28;;;;;;;15.70;10.75;;;;;;;13.74;97.67;99958.44;2839784;82;21629;-84
2022/10/21 14:59:40;;;;;;;13.93;9.23;;;;;;;13.69;99.06;99954.05;2896519;80;21624;-84
2022/10/21 15:03:52;;;;;;;12.03;9.98;;;;;;;13.57;99.74;99949.45;2922811;80;21019;-84
2022/10/21 15:08:16;;;;;;;13.68;10.28;;;;;;;13.44;100.00;99949.84;2932321;79;21478;-84
2022/10/21 15:12:18;;;;;;;14.93;10.20;;;;;;;13.36;100.00;99945.70;2879372;81;21963;-84
2022/10/21 15:16:23;;;;;;;16.75;10.20;;;;;;;13.31;100.00;99939.98;2861245;81;21624;-84
2022/10/21 15:20:25;;;;;;;16.52;12.15;;;;;;;13.19;100.00;99933.55;2882788;80;21864;-84
2022/10/21 15:24:43;;;;;;;22.50;12.43;;;;;;;13.19;100.00;99940.23;2878926;80;21554;-84
2022/10/21 15:28:44;;;;;;;16.48;12.35;;;;;;;13.23;100.00;99930.91;2884728;81;21054;-85
2022/10/21 15:32:48;;;;;;;16.17;12.13;;;;;;;13.13;100.00;99931.47;2920871;79;21033;-84
2022/10/21 15:36:49;;;;;;;15.83;13.58;;;;;;;13.13;100.00;99923.45;2916951;79;20976;-84
2022/10/21 15:40:50;;;;;;;25.97;14.05;;;;;;;13.12;100.00;99927.97;2848501;82;21076;-84
2022/10/21 15:44:51;;;;;;;23.22;18.07;;;;;;;13.11;100.00;99920.09;2818323;82;21074;-84
2022/10/21 15:48:52;;;;;;;20.62;14.58;;;;;;;13.05;100.00;99910.03;2913147;80;21002;-84
2022/10/21 15:52:53;;;;;;;18.12;11.48;;;;;;;13.00;100.00;99901.98;2878267;81;21043;-84
2022/10/21 15:56:57;;;;;;;15.03;11.53;;;;;;;12.97;100.00;99902.30;2879394;81;21557;-84
2022/10/21 16:00:58;;;;;;;13.18;11.78;;;;;;;12.91;100.00;99896.72;2850329;81;21076;-84
2022/10/21 16:04:59;;;;;;;18.27;12.05;;;;;;;12.91;100.00;99909.55;2938062;80;21063;-84
2022/10/21 16:09:00;;;;;;;17.37;12.03;;;;;;;12.91;100.00;99910.06;2919632;79;21106;-84
2022/10/21 16:13:02;;;;;;;14.15;10.30;;;;;;;12.89;100.00;99902.70;2887131;81;21067;-84
2022/10/21 16:17:03;;;;;;;17.67;12.53;;;;;;;12.84;100.00;99900.48;2898745;81;21026;-84
2022/10/21 16:21:04;;;;;;;20.55;11.57;;;;;;;12.91;100.00;99889.53;2907701;80;21353;-84
2022/10/21 16:25:06;;;;;;;16.12;13.10;;;;;;;12.93;100.00;99892.88;2941997;79;21081;-83
2022/10/21 16:29:21;;;;;;;22.95;16.90;;;;;;;12.81;100.00;99894.11;2850282;81;21047;-84
2022/10/21 16:33:22;;;;;;;19.32;15.32;;;;;;;12.73;100.00;99899.34;2863153;82;21062;-84
2022/10/21 16:37:26;;;;;;;15.65;13.10;;;;;;;12.69;100.00;99896.97;2922282;79;41184;-84
2022/10/21 16:41:28;;;;;;;22.15;17.37;;;;;;;12.66;100.00;99894.61;2910014;80;21561;-84
2022/10/21 16:45:31;;;;;;;20.65;17.05;;;;;;;12.68;100.00;99888.63;2886442;81;21340;-84
2022/10/21 16:49:33;;;;;;;21.48;14.55;;;;;;;12.67;100.00;99886.09;2901139;80;21086;-84
2022/10/21 16:53:34;;;;;;;26.75;18.90;;;;;;;12.68;100.00;99887.80;2864201;80;21587;-84
2022/10/21 16:57:35;;;;;;;30.15;17.70;;;;;;;12.70;100.00;99887.16;2934064;79;21617;-84
2022/10/21 17:01:37;;;;;;;24.37;15.43;;;;;;;12.61;100.00;99886.22;2937673;80;20991;-84
2022/10/21 17:05:38;;;;;;;21.82;14.20;;;;;;;12.64;100.00;99889.91;2933527;80;21889;-84
2022/10/21 17:09:40;;;;;;;25.25;17.12;;;;;;;12.67;100.00;99889.61;2904608;80;21125;-84
2022/10/21 17:13:42;;;;;;;19.45;15.65;;;;;;;12.64;100.00;99887.25;2899601;79;22151;-84
2022/10/21 17:17:43;;;;;;;18.73;14.40;;;;;;;12.64;100.00;99894.40;2917251;80;21031;-84
2022/10/21 17:21:45;;;;;;;19.05;14.60;;;;;;;12.66;100.00;99899.94;2907587;80;21125;-84
2022/10/21 17:25:46;;;;;;;22.00;13.43;;;;;;;12.73;100.00;99912.20;2916715;79;21042;-83
2022/10/21 17:29:47;;;;;;;19.87;12.40;;;;;;;12.76;100.00;99926.58;2883609;80;21134;-84
2022/10/21 17:33:50;;;;;;;13.90;10.58;;;;;;;12.76;100.00;99935.06;2898476;80;21114;-84
2022/10/21 17:37:51;;;;;;;15.30;10.95;;;;;;;12.68;100.00;99928.65;2861525;81;21056;-84
2022/10/21 17:41:53;;;;;;;12.28;11.00;;;;;;;12.80;100.00;99911.11;2914588;79;21063;-84
2022/10/21 17:45:56;;;;;;;17.23;12.10;;;;;;;12.81;100.00;99890.92;2858422;80;21037;-84
2022/10/21 17:49:57;;;;;;;18.73;12.30;;;;;;;12.76;100.00;99865.67;2907331;80;21027;-84
2022/10/21 17:53:58;;;;;;;13.25;11.85;;;;;;;12.78;100.00;99884.56;2817136;80;21045;-84
2022/10/21 17:57:59;;;;;;;21.73;16.75;;;;;;;12.70;100.00;99875.14;2940533;79;21016;-84
2022/10/21 18:02:01;;;;;;;26.15;16.95;;;;;;;12.67;100.00;99876.75;2910698;80;21094;-84
2022/10/21 18:06:10;;;;;;;17.23;14.73;;;;;;;12.69;100.00;99881.47;2922294;80;21024;-84
2022/10/21 18:10:12;;;;;;;22.32;17.02;;;;;;;12.62;100.00;99890.56;2941120;80;20990;-84
2022/10/21 18:14:13;;;;;;;18.20;13.60;;;;;;;12.59;100.00;99885.53;2926873;79;21008;-83
2022/10/21 18:18:15;;;;;;;17.50;12.70;;;;;;;12.48;100.00;99873.71;2925659;79;21056;-84
2022/10/21 18:22:16;;;;;;;16.80;12.23;;;;;;;12.50;100.00;99865.06;2907856;80;21018;-84
2022/10/21 18:26:24;;;;;;;15.65;12.82;;;;;;;12.51;100.00;99860.06;2926126;79;20994;-84
2022/10/21 18:30:25;;;;;;;15.10;10.80;;;;;;;12.54;100.00;99866.44;2906926;80;21017;-85
2022/10/21 18:34:26;;;;;;;16.17;12.23;;;;;;;12.53;100.00;99868.28;2846211;82;21044;-85
2022/10/21 18:38:27;;;;;;;17.62;12.70;;;;;;;12.61;100.00;99871.55;2878749;81;20964;-85
2022/10/21 18:42:28;;;;;;;12.55;10.72;;;;;;;12.68;100.00;99883.28;2912575;80;21031;-84
2022/10/21 18:46:31;;;;;;;13.80;11.50;;;;;;;12.70;100.00;99883.15;2858211;81;21048;-85
2022/10/21 18:50:36;;;;;;;18.20;10.40;;;;;;;12.70;100.00;99879.97;2854951;81;21068;-84
2022/10/21 18:54:38;;;;;;;15.80;11.80;;;;;;;12.76;100.00;99885.69;2922124;79;21692;-85